createdAt,value
2018-07-10T00:00:42.226Z,3.50
2018-07-10T00:03:22.647Z,3.80
2018-07-10T00:08:11.371Z,3.90
2018-07-10T00:11:42.959Z,3.83
2018-07-10T00:14:11.326Z,3.77
2018-07-10T00:16:39.637Z,4.00
2018-07-10T00:19:07.979Z,4.80
2018-07-10T00:21:36.274Z,4.30
2018-07-10T00:24:04.643Z,4.30
2018-07-10T00:26:32.982Z,4.33
2018-07-10T00:29:01.323Z,4.53
2018-07-10T00:31:29.747Z,4.27
2018-07-10T00:33:58.070Z,3.77
2018-07-10T00:36:26.515Z,4.10
2018-07-10T00:39:02.082Z,4.23
2018-07-10T00:41:32.781Z,4.17
2018-07-10T00:44:02.014Z,4.07
2018-07-10T00:46:31.578Z,3.60
2018-07-10T00:48:59.978Z,3.80
2018-07-10T00:51:29.468Z,3.50
2018-07-10T00:53:57.827Z,3.67
2018-07-10T00:56:26.146Z,3.67
2018-07-10T00:58:55.662Z,3.60
2018-07-10T01:01:24.826Z,3.43
2018-07-10T01:03:53.250Z,3.23
2018-07-10T01:06:21.887Z,3.77
2018-07-10T01:08:50.345Z,3.37
2018-07-10T01:11:19.461Z,3.50
2018-07-10T01:13:48.866Z,3.00
2018-07-10T01:16:19.270Z,3.40
2018-07-10T01:18:47.757Z,3.50
2018-07-10T01:21:18.496Z,3.93
2018-07-10T01:23:50.396Z,3.50
2018-07-10T01:26:18.719Z,3.47
2018-07-10T01:28:47.074Z,3.17
2018-07-10T01:31:15.403Z,3.53
2018-07-10T01:33:43.791Z,3.50
2018-07-10T01:36:12.070Z,3.57
2018-07-10T01:38:40.403Z,3.40
2018-07-10T01:41:08.711Z,3.43
2018-07-10T01:43:37.063Z,3.07
2018-07-10T01:46:05.574Z,3.53
2018-07-10T01:48:33.938Z,3.30
2018-07-10T01:51:02.276Z,3.47
2018-07-10T01:53:30.623Z,3.50
2018-07-10T01:55:58.923Z,3.40
2018-07-10T01:58:27.465Z,3.40
2018-07-10T02:00:55.757Z,3.70
2018-07-10T02:03:24.138Z,2.77
2018-07-10T02:05:52.500Z,3.40
2018-07-10T02:08:20.883Z,3.17
2018-07-10T02:10:49.239Z,3.60
2018-07-10T02:13:17.573Z,3.30
2018-07-10T02:15:45.920Z,3.80
2018-07-10T02:18:14.209Z,3.60
2018-07-10T02:20:53.365Z,3.83
2018-07-10T02:23:22.117Z,3.37
2018-07-10T02:25:51.012Z,3.63
2018-07-10T02:28:19.839Z,3.40
2018-07-10T02:30:48.762Z,3.43
2018-07-10T02:33:17.331Z,3.40
2018-07-10T02:35:45.711Z,3.60
2018-07-10T02:38:14.378Z,3.80
2018-07-10T02:40:44.214Z,3.33
2018-07-10T02:43:12.620Z,4.87
2018-07-10T02:45:41.038Z,18.80
2018-07-10T02:48:09.357Z,7.57
2018-07-10T02:50:37.918Z,5.20
2018-07-10T02:53:06.456Z,4.07
2018-07-10T02:55:34.854Z,3.53
2018-07-10T02:58:03.174Z,4.17
2018-07-10T03:00:31.522Z,3.80
2018-07-10T03:03:00.991Z,3.60
2018-07-10T03:05:29.359Z,3.70
2018-07-10T03:07:57.806Z,3.57
2018-07-10T03:10:26.231Z,4.07
2018-07-10T03:12:54.686Z,3.70
2018-07-10T03:15:23.045Z,3.73
2018-07-10T03:17:52.692Z,3.20
2018-07-10T03:20:21.158Z,4.17
2018-07-10T03:22:49.516Z,3.57
2018-07-10T03:25:17.932Z,3.53
2018-07-10T03:27:46.516Z,4.40
2018-07-10T03:30:15.198Z,4.33
2018-07-10T03:32:43.614Z,4.20
2018-07-10T03:35:11.936Z,3.70
2018-07-10T03:37:40.383Z,4.23
2018-07-10T03:40:08.742Z,4.00
2018-07-10T03:42:37.075Z,3.90
2018-07-10T03:45:05.436Z,4.00
2018-07-10T03:47:33.756Z,4.03
2018-07-10T03:50:02.103Z,4.30
2018-07-10T03:52:32.873Z,4.43
2018-07-10T03:55:03.011Z,3.83
2018-07-10T03:57:31.411Z,3.60
2018-07-10T04:00:06.784Z,3.90
2018-07-10T04:02:35.091Z,4.70
2018-07-10T04:05:04.079Z,4.47
2018-07-10T04:07:32.807Z,4.20
2018-07-10T04:10:01.140Z,4.10
2018-07-10T04:12:33.565Z,4.07
2018-07-10T04:15:02.562Z,4.03
2018-07-10T04:17:35.710Z,4.50
2018-07-10T04:20:04.051Z,4.73
2018-07-10T04:22:33.235Z,4.30
2018-07-10T04:25:02.175Z,4.40
2018-07-10T04:27:36.174Z,4.27
2018-07-10T04:30:13.008Z,4.00
2018-07-10T04:32:42.042Z,4.00
2018-07-10T04:35:13.730Z,3.90
2018-07-10T04:37:45.538Z,4.23
2018-07-10T04:40:14.103Z,3.87
2018-07-10T04:43:49.255Z,3.63
2018-07-10T04:46:17.653Z,2.80
2018-07-10T04:48:47.507Z,3.40
2018-07-10T04:51:30.867Z,3.10
2018-07-10T04:54:02.892Z,2.57
2018-07-10T04:56:31.395Z,2.20
2018-07-10T04:58:59.750Z,2.10
2018-07-10T05:01:35.394Z,1.97
2018-07-10T05:04:04.783Z,2.17
2018-07-10T05:06:35.457Z,1.90
2018-07-10T05:09:04.987Z,2.20
2018-07-10T05:11:35.644Z,2.13
2018-07-10T05:14:04.918Z,2.07
2018-07-10T05:16:34.278Z,2.30
2018-07-10T05:19:02.778Z,2.20
2018-07-10T05:21:31.195Z,2.40
2018-07-10T05:24:01.428Z,1.90
2018-07-10T05:26:29.831Z,1.93
2018-07-10T05:28:58.396Z,1.70
2018-07-10T05:31:28.298Z,1.43
2018-07-10T05:33:56.927Z,1.63
2018-07-10T05:36:25.509Z,1.47
2018-07-10T05:39:10.889Z,1.60
2018-07-10T05:41:40.819Z,1.37
2018-07-10T05:44:09.280Z,1.77
2018-07-10T05:46:37.686Z,1.90
2018-07-10T05:49:06.675Z,1.70
2018-07-10T05:51:38.362Z,1.60
2018-07-10T05:54:08.355Z,1.90
2018-07-10T05:56:37.749Z,1.70
2018-07-10T05:59:07.266Z,1.63
2018-07-10T06:01:37.087Z,2.10
2018-07-10T06:04:05.998Z,2.20
2018-07-10T06:06:34.544Z,2.00
2018-07-10T06:09:02.987Z,1.73
2018-07-10T06:11:31.325Z,2.00
2018-07-10T06:14:07.145Z,2.00
2018-07-10T06:16:40.828Z,1.83
2018-07-10T06:19:10.418Z,2.30
2018-07-10T06:21:43.373Z,9.20
2018-07-10T06:24:16.228Z,8.30
2018-07-10T06:26:45.309Z,3.40
2018-07-10T06:29:20.008Z,6.07
2018-07-10T06:31:51.223Z,8.80
2018-07-10T06:34:21.091Z,4.73
2018-07-10T06:36:54.430Z,2.93
2018-07-10T06:39:23.147Z,2.27
2018-07-10T06:42:15.328Z,7.40
2018-07-10T06:44:47.381Z,2.80
2018-07-10T06:47:20.316Z,2.17
2018-07-10T06:52:48.850Z,2.00
2018-07-10T06:55:18.360Z,1.87
2018-07-10T06:57:50.747Z,1.97
2018-07-10T07:00:19.051Z,1.90
2018-07-10T07:02:47.925Z,2.10
2018-07-10T07:05:16.398Z,2.00
2018-07-10T07:07:57.286Z,1.73
2018-07-10T07:10:43.129Z,1.80
2018-07-10T07:13:33.739Z,2.20
2018-07-10T07:16:14.035Z,2.10
2018-07-10T07:18:57.918Z,2.17
2018-07-10T07:21:49.628Z,2.20
2018-07-10T07:31:00.332Z,2.10
2018-07-10T07:33:46.308Z,2.10
2018-07-10T07:36:42.791Z,2.40
2018-07-10T07:42:11.334Z,2.00
2018-07-10T07:45:01.252Z,1.83
2018-07-10T07:47:50.293Z,2.20
2018-07-10T07:50:21.412Z,2.40
2018-07-10T07:53:01.738Z,2.67
2018-07-10T07:55:39.539Z,2.23
2018-07-10T07:58:34.020Z,2.60
2018-07-10T08:04:08.421Z,2.40
2018-07-10T08:07:16.907Z,2.43
2018-07-10T08:19:34.732Z,2.83
2018-07-10T08:22:06.135Z,2.43
2018-07-10T08:24:51.554Z,2.90
2018-07-10T08:28:01.309Z,2.80
2018-07-10T08:30:37.297Z,2.73
2018-07-10T08:33:14.222Z,2.90
2018-07-10T08:35:51.587Z,3.37
2018-07-10T08:38:57.392Z,3.00
2018-07-10T08:41:42.740Z,3.40
2018-07-10T08:44:26.620Z,3.23
2018-07-10T08:46:59.582Z,3.17
2018-07-10T08:49:34.338Z,2.40
2018-07-10T08:52:10.291Z,2.90
2018-07-10T08:54:47.603Z,2.70
2018-07-10T08:57:18.234Z,2.83
2018-07-10T08:59:52.327Z,2.93
2018-07-10T09:02:26.055Z,3.40
2018-07-10T09:05:00.745Z,3.00
2018-07-10T09:07:35.229Z,3.20
2018-07-10T09:10:16.495Z,3.60
2018-07-10T09:13:04.382Z,2.80
2018-07-10T09:15:43.479Z,2.90
2018-07-10T09:18:17.495Z,2.90
2018-07-10T09:21:00.293Z,2.90
2018-07-10T09:23:39.159Z,3.00
2018-07-10T09:26:12.938Z,3.10
2018-07-10T09:28:45.386Z,3.10
2018-07-10T09:31:15.270Z,2.73
2018-07-10T09:33:56.912Z,2.60
2018-07-10T09:36:39.019Z,2.23
2018-07-10T09:39:18.587Z,3.00
2018-07-10T09:41:59.012Z,2.70
2018-07-10T09:44:53.312Z,2.80
2018-07-10T09:47:34.887Z,2.50
2018-07-10T09:50:13.452Z,2.27
2018-07-10T09:52:55.529Z,2.70
2018-07-10T09:55:41.828Z,2.63
2018-07-10T09:58:15.590Z,2.70
2018-07-10T10:00:56.765Z,2.40
2018-07-10T10:03:29.635Z,2.70
2018-07-10T10:06:02.666Z,2.73
2018-07-10T10:08:36.579Z,2.57
2018-07-10T10:11:06.690Z,2.63
2018-07-10T10:13:35.853Z,2.27
2018-07-10T10:16:07.888Z,2.50
2018-07-10T10:18:39.828Z,2.30
2018-07-10T10:21:12.498Z,2.97
2018-07-10T10:23:48.884Z,2.57
2018-07-10T10:26:25.025Z,2.53
2018-07-10T10:29:05.367Z,2.67
2018-07-10T10:31:38.088Z,2.60
2018-07-10T10:34:12.464Z,3.03
2018-07-10T10:36:49.556Z,2.70
2018-07-10T10:39:20.094Z,2.90
2018-07-10T10:41:55.216Z,2.80
2018-07-10T10:44:29.094Z,2.80
2018-07-10T10:47:05.557Z,2.93
2018-07-10T10:49:35.766Z,2.53
2018-07-10T10:52:09.829Z,2.73
2018-07-10T10:54:40.986Z,2.80
2018-07-10T10:57:13.854Z,2.50
2018-07-10T10:59:50.641Z,3.50
2018-07-10T11:02:28.466Z,2.60
2018-07-10T11:05:03.333Z,2.80
2018-07-10T12:49:11.268Z,5.97
2018-07-10T12:51:54.373Z,6.20
2018-07-10T12:54:43.698Z,5.50
2018-07-10T12:57:33.058Z,6.77
2018-07-10T13:02:59.754Z,5.67
2018-07-10T13:05:39.332Z,6.10
2018-07-10T13:08:18.403Z,5.70
2018-07-10T13:11:08.835Z,5.87
2018-07-10T13:13:44.207Z,5.20
2018-07-10T13:16:18.535Z,5.33
2018-07-10T13:18:50.757Z,4.93
2018-07-10T13:21:27.418Z,5.10
2018-07-10T13:24:01.724Z,5.13
2018-07-10T13:26:51.600Z,5.40
2018-07-10T13:29:27.531Z,5.23
2018-07-10T13:32:23.363Z,5.10
2018-07-10T13:34:59.657Z,5.30
2018-07-10T13:37:33.307Z,4.57
2018-07-10T13:40:07.185Z,4.67
2018-07-10T13:43:08.809Z,4.97
2018-07-10T13:45:44.487Z,5.47
2018-07-10T13:48:28.377Z,5.60
2018-07-10T13:50:59.019Z,4.70
2018-07-10T13:53:32.173Z,5.40
2018-07-10T13:56:17.566Z,5.13
2018-07-10T13:59:09.699Z,5.60
2018-07-10T14:01:52.782Z,5.33
2018-07-10T14:04:31.207Z,5.40
2018-07-10T14:07:07.540Z,5.23
2018-07-10T14:09:49.475Z,5.50
2018-07-10T14:15:11.331Z,5.33
2018-07-10T14:17:45.417Z,4.60
2018-07-10T14:20:34.251Z,4.17
2018-07-10T14:23:11.596Z,4.70
2018-07-10T14:25:44.855Z,4.07
2018-07-10T14:31:04.430Z,4.03
2018-07-10T14:33:40.447Z,4.20
2018-07-10T14:36:16.874Z,4.10
2018-07-10T14:38:56.545Z,4.33
2018-07-10T14:41:38.006Z,4.23
2018-07-10T14:44:25.774Z,3.93
2018-07-10T14:46:59.285Z,4.80
2018-07-10T14:49:51.540Z,4.47
2018-07-10T14:52:29.535Z,4.77
2018-07-10T14:55:17.189Z,4.60
2018-07-10T14:57:54.057Z,4.10
2018-07-10T15:00:29.179Z,4.73
2018-07-10T15:05:42.590Z,4.30
2018-07-10T15:08:13.499Z,5.07
2018-07-10T15:10:46.818Z,4.77
2018-07-10T15:13:22.218Z,4.40
2018-07-10T15:16:03.511Z,4.67
2018-07-10T15:18:51.990Z,4.67
2018-07-10T15:21:25.135Z,4.40
2018-07-10T15:23:54.873Z,4.43
2018-07-10T15:26:26.013Z,4.60
2018-07-10T15:29:21.534Z,4.07
2018-07-10T15:31:54.157Z,4.67
2018-07-10T15:34:28.616Z,4.80
2018-07-10T15:39:39.407Z,4.80
2018-07-10T15:42:09.813Z,4.33
2018-07-10T15:44:46.884Z,4.60
2018-07-10T15:47:16.958Z,4.57
2018-07-10T15:49:48.393Z,4.30
2018-07-10T15:52:20.034Z,4.40
2018-07-10T15:54:49.584Z,4.70
2018-07-10T15:57:24.634Z,4.97
2018-07-10T15:59:54.184Z,4.73
2018-07-10T16:02:25.522Z,4.40
2018-07-10T16:04:55.486Z,4.40
2018-07-10T16:10:20.742Z,4.50
2018-07-10T16:12:59.297Z,4.90
2018-07-10T16:15:39.382Z,4.40
2018-07-10T16:18:14.583Z,5.00
2018-07-10T16:21:06.673Z,5.33
2018-07-10T16:23:41.934Z,4.70
2018-07-10T16:26:41.683Z,4.97
2018-07-10T16:29:16.809Z,4.43
2018-07-10T16:31:54.493Z,5.00
2018-07-10T16:34:28.784Z,4.40
2018-07-10T16:37:05.962Z,5.20
2018-07-10T16:39:47.380Z,5.40
2018-07-10T16:48:19.175Z,4.70
2018-07-10T16:51:31.165Z,4.37
2018-07-10T16:54:07.808Z,4.90
2018-07-10T16:56:45.886Z,5.00
2018-07-10T16:59:39.448Z,4.83
2018-07-10T17:02:09.345Z,5.10
2018-07-10T17:04:44.555Z,5.20
2018-07-10T17:07:25.676Z,5.50
2018-07-10T17:10:03.644Z,6.10
2018-07-10T17:12:43.989Z,6.03
2018-07-10T17:18:02.516Z,5.63
2018-07-10T17:20:39.293Z,5.87
2018-07-10T17:26:07.662Z,6.40
2018-07-10T17:28:49.067Z,6.27
2018-07-10T17:31:37.214Z,5.70
2018-07-10T17:34:17.297Z,5.90
2018-07-10T17:37:18.982Z,6.63
2018-07-10T17:39:57.119Z,6.00
2018-07-10T17:42:39.759Z,7.03
2018-07-10T17:45:25.524Z,7.50
2018-07-10T17:48:14.264Z,7.70
2018-07-10T17:50:45.921Z,7.47
2018-07-10T17:53:33.494Z,7.30
2018-07-10T17:56:08.990Z,7.77
2018-07-10T17:58:48.172Z,8.17
2018-07-10T18:01:22.197Z,7.80
2018-07-10T18:06:59.097Z,8.40
2018-07-10T18:09:30.682Z,8.13
2018-07-10T18:12:06.072Z,8.00
2018-07-10T18:14:36.285Z,8.67
2018-07-10T18:17:14.487Z,8.60
2018-07-10T18:19:52.418Z,8.27
2018-07-10T18:22:23.790Z,8.17
2018-07-10T18:24:56.506Z,8.50
2018-07-10T18:27:30.488Z,8.00
2018-07-10T18:30:01.611Z,8.63
2018-07-10T18:32:32.687Z,9.07
2018-07-10T18:35:03.396Z,8.33
2018-07-10T18:37:37.425Z,7.80
2018-07-10T18:40:09.370Z,7.60
2018-07-10T18:42:47.231Z,8.57
2018-07-10T18:45:23.915Z,8.23
2018-07-10T18:47:57.306Z,8.93
2018-07-10T18:50:35.077Z,8.33
2018-07-10T18:53:19.102Z,8.53
2018-07-10T18:59:19.474Z,8.97
2018-07-10T19:01:58.471Z,9.23
2018-07-10T19:04:31.047Z,9.10
2018-07-10T19:06:59.577Z,9.40
2018-07-10T19:09:33.797Z,9.47
2018-07-10T19:12:04.013Z,9.20
2018-07-10T19:14:32.468Z,10.53
2018-07-10T19:17:00.884Z,9.57
2018-07-10T19:19:29.487Z,9.50
2018-07-10T19:22:03.064Z,9.23
2018-07-10T19:24:31.664Z,9.73
2018-07-10T19:27:00.727Z,9.63
2018-07-10T19:29:35.805Z,9.70
2018-07-10T19:32:04.680Z,10.03
2018-07-10T19:34:33.198Z,9.77
2018-07-10T19:37:01.743Z,10.17
2018-07-10T19:39:30.191Z,10.70
2018-07-10T19:41:59.036Z,10.90
2018-07-10T19:44:27.581Z,10.27
2018-07-10T19:46:56.450Z,10.30
2018-07-10T19:49:25.222Z,11.37
2018-07-10T19:51:53.858Z,11.20
2018-07-10T19:54:22.468Z,10.93
2018-07-10T19:56:50.988Z,23.77
2018-07-10T19:59:19.519Z,12.70
2018-07-10T20:01:53.549Z,11.77
2018-07-10T20:04:43.202Z,19.40
2018-07-10T20:07:22.552Z,44.33
2018-07-10T20:09:55.068Z,41.27
2018-07-10T20:12:34.338Z,52.37
2018-07-10T20:17:23.199Z,83.93
2018-07-10T20:20:10.137Z,25.63
2018-07-10T20:22:52.182Z,21.90
2018-07-10T20:25:29.887Z,16.20
2018-07-10T20:28:04.600Z,12.70
2018-07-10T20:30:45.617Z,14.07
2018-07-10T20:34:21.601Z,13.93
2018-07-10T20:36:54.826Z,12.73
2018-07-10T20:39:33.046Z,13.07
2018-07-10T20:42:02.700Z,12.00
2018-07-10T20:44:33.246Z,11.97
2018-07-10T20:47:04.092Z,11.37
2018-07-10T20:49:46.579Z,12.17
2018-07-10T20:52:18.657Z,20.23
2018-07-10T20:54:54.478Z,30.50
2018-07-10T20:57:30.444Z,16.23
2018-07-10T21:00:08.786Z,13.33
2018-07-10T21:03:47.951Z,11.60
2018-07-10T21:07:04.090Z,12.73
2018-07-10T21:09:47.446Z,13.17
2018-07-10T21:12:18.880Z,12.77
2018-07-10T21:15:23.396Z,11.70
2018-07-10T21:19:01.440Z,13.07
2018-07-10T21:21:45.816Z,12.40
2018-07-10T21:24:17.856Z,12.73
2018-07-10T21:26:54.096Z,12.37
2018-07-10T21:30:32.963Z,12.33
2018-07-10T21:34:14.956Z,13.20
2018-07-10T21:37:55.665Z,12.20
2018-07-10T21:40:31.789Z,13.10
2018-07-10T21:44:14.587Z,13.20
2018-07-10T21:46:56.151Z,12.57
2018-07-10T21:50:01.339Z,12.90
2018-07-10T21:52:30.080Z,12.43
2018-07-10T21:54:58.513Z,12.40
2018-07-10T21:57:32.574Z,12.37
2018-07-10T22:00:01.400Z,12.03
2018-07-10T22:02:30.458Z,11.97
2018-07-10T22:04:59.467Z,11.37
2018-07-10T22:07:28.833Z,11.37
2018-07-10T22:10:01.658Z,10.83
2018-07-10T22:12:30.007Z,10.50
2018-07-10T22:14:58.399Z,10.83
2018-07-10T22:17:27.686Z,10.27
2018-07-10T22:19:57.143Z,11.37
2018-07-10T22:22:30.078Z,11.00
2018-07-10T22:24:59.974Z,10.50
2018-07-10T22:27:28.375Z,9.90
2018-07-10T22:30:04.715Z,10.50
2018-07-10T22:32:47.063Z,11.03
2018-07-10T22:35:16.355Z,10.00
2018-07-10T22:37:44.698Z,10.03
2018-07-10T22:40:13.059Z,9.87
2018-07-10T22:42:41.338Z,9.77
2018-07-10T22:45:09.767Z,10.00
2018-07-10T22:47:39.751Z,9.80
2018-07-10T22:50:12.979Z,9.50
2018-07-10T22:52:51.856Z,9.63
2018-07-10T22:55:22.072Z,9.67
2018-07-10T22:57:52.108Z,8.67
2018-07-10T23:00:32.485Z,9.93
2018-07-10T23:03:01.659Z,9.47
2018-07-10T23:05:30.140Z,9.70
2018-07-10T23:07:58.459Z,9.10
2018-07-10T23:10:27.411Z,9.20
2018-07-10T23:12:55.695Z,9.00
2018-07-10T23:15:24.037Z,9.67
2018-07-10T23:17:52.354Z,9.57
2018-07-10T23:20:22.249Z,9.73
2018-07-10T23:22:54.902Z,9.10
2018-07-10T23:25:25.288Z,9.07
2018-07-10T23:28:01.660Z,9.40
2018-07-10T23:30:35.427Z,9.63
2018-07-10T23:33:03.880Z,8.40
2018-07-10T23:35:33.519Z,8.53
2018-07-10T23:38:08.793Z,8.63
2018-07-10T23:40:39.543Z,8.23
2018-07-10T23:43:07.865Z,7.93
2018-07-10T23:45:36.283Z,8.53
2018-07-10T23:48:05.439Z,8.50
2018-07-10T23:50:34.767Z,8.20
2018-07-10T23:53:16.063Z,8.80
2018-07-10T23:55:44.351Z,8.33
2018-07-10T23:58:13.157Z,8.77
